createdAt,value
2023-01-23T00:01:26.585Z,10.10
2023-01-23T00:03:55.307Z,11.53
2023-01-23T00:06:24.234Z,10.43
2023-01-23T00:08:53.602Z,10.07
2023-01-23T00:11:24.583Z,9.53
2023-01-23T00:13:52.840Z,10.40
2023-01-23T00:16:23.040Z,9.53
2023-01-23T00:18:51.904Z,9.43
2023-01-23T00:21:22.359Z,11.87
2023-01-23T00:23:52.384Z,8.40
2023-01-23T00:26:25.069Z,9.47
2023-01-23T00:28:53.862Z,11.40
2023-01-23T00:31:25.727Z,10.80
2023-01-23T00:33:55.642Z,9.60
2023-01-23T00:36:23.880Z,9.43
2023-01-23T00:38:51.766Z,10.93
2023-01-23T00:41:20.993Z,9.37
2023-01-23T00:43:50.692Z,11.30
2023-01-23T00:46:18.718Z,13.80
2023-01-23T00:48:46.710Z,12.00
2023-01-23T00:51:14.942Z,11.80
2023-01-23T00:53:42.938Z,9.63
2023-01-23T00:56:10.869Z,8.97
2023-01-23T00:58:40.541Z,9.97
2023-01-23T01:01:08.638Z,8.70
2023-01-23T01:03:36.909Z,10.63
2023-01-23T01:06:05.425Z,8.10
2023-01-23T01:08:33.834Z,9.10
2023-01-23T01:11:01.830Z,9.07
2023-01-23T01:13:30.082Z,10.03
2023-01-23T01:16:01.970Z,11.43
2023-01-23T01:18:31.120Z,9.80
2023-01-23T01:20:59.710Z,9.10
2023-01-23T01:23:27.715Z,8.70
2023-01-23T01:25:59.886Z,9.73
2023-01-23T01:28:30.286Z,9.70
2023-01-23T01:31:00.318Z,8.73
2023-01-23T01:33:28.435Z,10.97
2023-01-23T01:35:56.897Z,9.10
2023-01-23T01:38:24.862Z,9.53
2023-01-23T01:40:52.737Z,10.00
2023-01-23T01:43:22.575Z,9.17
2023-01-23T01:46:17.582Z,9.03
2023-01-23T01:48:51.226Z,9.60
2023-01-23T01:51:25.662Z,10.77
2023-01-23T01:54:01.755Z,7.93
2023-01-23T01:56:31.661Z,9.90
2023-01-23T01:59:01.077Z,10.43
2023-01-23T02:01:30.620Z,11.07
2023-01-23T02:03:58.868Z,9.03
2023-01-23T02:06:27.397Z,8.30
2023-01-23T02:09:02.043Z,10.10
2023-01-23T02:11:30.063Z,7.90
2023-01-23T02:13:58.026Z,8.33
2023-01-23T02:16:31.321Z,8.80
2023-01-23T02:19:02.938Z,8.00
2023-01-23T02:21:31.058Z,8.27
2023-01-23T02:24:14.772Z,9.07
2023-01-23T02:26:45.706Z,6.57
2023-01-23T02:29:15.551Z,8.20
2023-01-23T02:31:46.063Z,9.27
2023-01-23T02:34:15.427Z,8.27
2023-01-23T02:36:47.373Z,8.47
2023-01-23T02:39:17.286Z,7.07
2023-01-23T02:41:48.687Z,6.40
2023-01-23T02:44:19.915Z,10.87
2023-01-23T02:46:48.045Z,9.27
2023-01-23T02:49:15.925Z,10.60
2023-01-23T02:51:43.796Z,10.47
2023-01-23T02:54:11.665Z,10.90
2023-01-23T02:56:39.820Z,11.23
2023-01-23T02:59:26.785Z,10.27
2023-01-23T03:01:54.684Z,9.70
2023-01-23T03:04:23.028Z,9.97
2023-01-23T03:06:50.922Z,10.63
2023-01-23T03:09:19.575Z,10.90
2023-01-23T03:11:48.202Z,10.80
2023-01-23T03:14:21.319Z,10.20
2023-01-23T03:16:51.470Z,8.70
2023-01-23T03:19:20.766Z,8.60
2023-01-23T03:21:48.729Z,7.80
2023-01-23T03:24:17.206Z,6.50
2023-01-23T03:26:46.623Z,4.80
2023-01-23T03:29:35.862Z,4.93
2023-01-23T03:32:04.222Z,6.00
2023-01-23T03:34:32.686Z,4.90
2023-01-23T03:37:01.331Z,5.40
2023-01-23T03:39:46.603Z,5.47
2023-01-23T03:42:14.732Z,6.77
2023-01-23T03:44:44.142Z,5.37
2023-01-23T03:47:12.013Z,7.17
2023-01-23T03:49:39.925Z,6.37
2023-01-23T03:52:07.921Z,5.77
2023-01-23T03:54:35.982Z,5.97
2023-01-23T03:57:03.907Z,4.50
2023-01-23T03:59:31.842Z,6.60
2023-01-23T04:02:01.447Z,7.17
2023-01-23T04:04:29.314Z,8.20
2023-01-23T04:06:57.174Z,6.87
2023-01-23T04:09:28.023Z,7.17
2023-01-23T04:11:56.468Z,5.27
2023-01-23T04:14:24.688Z,7.03
2023-01-23T04:16:52.759Z,6.17
2023-01-23T04:19:22.128Z,6.90
2023-01-23T04:21:50.692Z,4.97
2023-01-23T04:24:19.150Z,5.93
2023-01-23T04:26:46.987Z,5.93
2023-01-23T04:29:14.895Z,5.87
2023-01-23T04:31:42.840Z,4.63
2023-01-23T04:34:10.797Z,5.93
2023-01-23T04:36:40.081Z,5.17
2023-01-23T04:39:07.975Z,5.37
2023-01-23T04:41:36.045Z,5.57
2023-01-23T04:44:17.836Z,4.50
2023-01-23T04:46:45.706Z,5.17
2023-01-23T04:49:14.134Z,4.17
2023-01-23T04:51:44.513Z,5.37
2023-01-23T04:54:12.708Z,5.80
2023-01-23T04:56:41.017Z,6.33
2023-01-23T04:59:08.973Z,5.20
2023-01-23T05:01:36.896Z,4.97
2023-01-23T05:04:05.839Z,5.73
2023-01-23T05:06:33.917Z,6.23
2023-01-23T05:09:03.299Z,5.37
2023-01-23T05:11:31.651Z,4.33
2023-01-23T05:13:59.567Z,6.33
2023-01-23T05:16:27.469Z,6.27
2023-01-23T05:18:55.435Z,6.77
2023-01-23T05:21:23.515Z,4.87
2023-01-23T05:23:51.341Z,5.43
2023-01-23T05:26:20.576Z,5.30
2023-01-23T05:28:48.506Z,5.27
2023-01-23T05:31:16.693Z,5.43
2023-01-23T05:33:44.633Z,6.07
2023-01-23T05:36:12.830Z,6.90
2023-01-23T05:38:40.692Z,7.70
2023-01-23T05:41:08.612Z,8.13
2023-01-23T05:43:37.922Z,9.27
2023-01-23T05:46:06.257Z,6.60
2023-01-23T05:48:34.439Z,4.13
2023-01-23T05:51:03.881Z,5.67
2023-01-23T05:53:32.212Z,4.70
2023-01-23T05:56:00.019Z,3.80
2023-01-23T05:58:27.949Z,5.17
2023-01-23T06:00:57.374Z,4.50
2023-01-23T06:03:25.270Z,5.60
2023-01-23T06:05:53.117Z,4.40
2023-01-23T06:08:20.974Z,5.43
2023-01-23T06:10:48.977Z,5.43
2023-01-23T06:13:16.958Z,5.03
2023-01-23T06:15:44.996Z,5.10
2023-01-23T06:18:16.321Z,6.53
2023-01-23T06:20:44.222Z,7.27
2023-01-23T06:23:12.248Z,7.37
2023-01-23T06:25:40.600Z,7.00
2023-01-23T06:28:08.859Z,7.03
2023-01-23T06:30:36.968Z,7.10
2023-01-23T06:33:04.877Z,7.37
2023-01-23T06:35:34.257Z,7.10
2023-01-23T06:38:02.319Z,8.00
2023-01-23T06:40:30.372Z,8.07
2023-01-23T06:42:58.236Z,9.53
2023-01-23T06:45:26.233Z,9.17
2023-01-23T06:47:54.314Z,11.17
2023-01-23T06:50:22.583Z,9.23
2023-01-23T06:52:51.983Z,11.27
2023-01-23T06:55:20.896Z,12.07
2023-01-23T06:57:48.928Z,12.63
2023-01-23T07:00:17.605Z,12.67
2023-01-23T07:02:45.859Z,9.73
2023-01-23T07:05:13.840Z,10.30
2023-01-23T07:07:41.768Z,7.77
2023-01-23T07:10:12.267Z,7.47
2023-01-23T07:12:40.152Z,10.97
2023-01-23T07:15:09.663Z,9.23
2023-01-23T07:17:37.572Z,11.23
2023-01-23T07:20:07.941Z,11.97
2023-01-23T07:22:36.270Z,13.17
2023-01-23T07:25:04.313Z,11.00
2023-01-23T07:27:33.792Z,11.07
2023-01-23T07:30:01.682Z,13.93
2023-01-23T07:32:29.567Z,12.47
2023-01-23T07:34:57.458Z,12.50
2023-01-23T07:37:26.051Z,13.10
2023-01-23T07:39:54.164Z,12.03
2023-01-23T07:42:22.258Z,12.43
2023-01-23T07:44:51.521Z,12.73
2023-01-23T07:47:19.669Z,11.17
2023-01-23T07:49:47.571Z,10.93
2023-01-23T07:52:15.411Z,14.17
2023-01-23T07:54:43.517Z,12.27
2023-01-23T07:57:11.403Z,11.50
2023-01-23T07:59:39.474Z,9.37
2023-01-23T08:02:10.614Z,10.43
2023-01-23T08:04:38.988Z,10.40
2023-01-23T08:07:07.069Z,10.33
2023-01-23T08:09:35.024Z,11.00
2023-01-23T08:12:03.204Z,8.47
2023-01-23T08:14:31.217Z,9.60
2023-01-23T08:16:59.320Z,11.80
2023-01-23T08:19:28.759Z,15.07
2023-01-23T08:21:56.685Z,14.97
2023-01-23T08:24:24.637Z,14.03
2023-01-23T08:26:52.738Z,16.17
2023-01-23T08:29:20.894Z,13.03
2023-01-23T08:31:49.121Z,13.80
2023-01-23T08:34:17.356Z,12.90
2023-01-23T08:36:48.192Z,14.47
2023-01-23T08:39:17.833Z,13.40
2023-01-23T08:41:45.958Z,9.67
2023-01-23T08:44:14.406Z,11.33
2023-01-23T08:46:43.060Z,10.93
2023-01-23T08:49:11.484Z,10.30
2023-01-23T08:51:39.601Z,10.03
2023-01-23T08:54:09.241Z,10.07
2023-01-23T08:56:37.089Z,13.47
2023-01-23T08:59:05.021Z,11.03
2023-01-23T09:01:32.931Z,11.80
2023-01-23T09:04:00.840Z,9.83
2023-01-23T09:06:28.797Z,12.83
2023-01-23T09:08:56.675Z,9.33
2023-01-23T09:11:26.133Z,7.70
2023-01-23T09:13:54.322Z,10.97
2023-01-23T09:16:22.450Z,7.50
2023-01-23T09:18:50.374Z,8.93
2023-01-23T09:21:18.973Z,7.63
2023-01-23T09:23:47.046Z,8.30
2023-01-23T09:26:17.234Z,7.13
2023-01-23T09:28:48.299Z,7.67
2023-01-23T09:31:16.381Z,8.93
2023-01-23T09:33:44.240Z,7.60
2023-01-23T09:36:12.609Z,10.30
2023-01-23T09:38:40.462Z,10.03
2023-01-23T09:41:17.628Z,7.73
2023-01-23T09:43:54.059Z,9.93
2023-01-23T09:46:26.000Z,9.90
2023-01-23T09:48:58.495Z,6.47
2023-01-23T09:51:32.030Z,10.17
2023-01-23T09:54:06.068Z,7.10
2023-01-23T09:56:38.046Z,7.77
2023-01-23T09:59:14.666Z,8.07
2023-01-23T10:01:42.682Z,6.13
2023-01-23T10:04:13.801Z,7.80
2023-01-23T10:07:02.995Z,7.90
2023-01-23T10:09:43.069Z,6.77
2023-01-23T10:12:23.089Z,7.10
2023-01-23T10:15:21.992Z,6.47
2023-01-23T10:18:00.102Z,6.87
2023-01-23T10:20:51.062Z,8.97
2023-01-23T10:23:42.850Z,7.20
2023-01-23T10:26:16.579Z,8.63
2023-01-23T10:28:45.651Z,10.20
2023-01-23T10:31:27.883Z,11.10
2023-01-23T10:34:05.337Z,7.63
2023-01-23T10:36:47.912Z,8.93
2023-01-23T10:39:27.670Z,8.30
2023-01-23T10:42:02.087Z,10.23
2023-01-23T10:44:30.620Z,9.17
2023-01-23T10:47:03.716Z,8.37
2023-01-23T10:49:35.240Z,11.73
2023-01-23T10:52:03.468Z,9.40
2023-01-23T10:54:33.175Z,9.10
2023-01-23T10:57:03.256Z,9.43
2023-01-23T10:59:35.723Z,12.10
2023-01-23T11:02:20.820Z,10.03
2023-01-23T11:04:51.756Z,13.03
2023-01-23T11:07:22.278Z,11.87
2023-01-23T11:09:54.420Z,8.70
2023-01-23T11:12:24.719Z,11.20
2023-01-23T11:14:53.566Z,9.37
2023-01-23T11:17:25.232Z,9.40
2023-01-23T11:19:54.822Z,10.33
2023-01-23T11:22:30.384Z,11.57
2023-01-23T11:24:58.917Z,11.20
2023-01-23T11:27:31.064Z,10.07
2023-01-23T11:30:29.249Z,10.23
2023-01-23T11:33:00.713Z,8.30
2023-01-23T11:35:47.253Z,8.53
2023-01-23T11:38:27.218Z,9.53
2023-01-23T11:40:58.134Z,10.10
2023-01-23T11:43:26.193Z,11.50
2023-01-23T11:46:10.902Z,11.70
2023-01-23T11:48:57.574Z,12.63
2023-01-23T11:51:33.924Z,12.30
2023-01-23T11:54:09.610Z,11.97
2023-01-23T11:57:02.361Z,11.83
2023-01-23T11:59:47.565Z,10.97
2023-01-23T12:02:43.422Z,14.03
2023-01-23T12:05:32.853Z,13.37
2023-01-23T12:08:15.291Z,11.77
2023-01-23T12:10:54.857Z,13.50
2023-01-23T12:13:57.468Z,13.23
2023-01-23T12:16:34.166Z,10.70
2023-01-23T12:19:14.478Z,13.07
2023-01-23T12:21:51.990Z,13.57
2023-01-23T12:24:36.209Z,13.00
2023-01-23T12:27:12.730Z,12.83
2023-01-23T12:29:52.633Z,11.00
2023-01-23T12:32:55.001Z,11.30
2023-01-23T12:35:34.501Z,12.57
2023-01-23T12:38:14.264Z,11.27
2023-01-23T12:40:46.032Z,12.23
2023-01-23T12:43:19.167Z,12.83
2023-01-23T12:45:52.060Z,14.13
2023-01-23T12:48:28.130Z,11.40
2023-01-23T12:51:02.140Z,12.87
2023-01-23T12:53:37.457Z,11.67
2023-01-23T12:56:08.962Z,14.47
2023-01-23T12:58:41.534Z,11.03
2023-01-23T13:01:29.894Z,10.60
2023-01-23T13:04:07.407Z,10.87
2023-01-23T13:07:00.323Z,9.63
2023-01-23T13:09:41.175Z,10.67
2023-01-23T13:12:23.920Z,10.20
2023-01-23T13:15:13.316Z,11.77
2023-01-23T13:17:48.249Z,10.23
2023-01-23T13:20:52.586Z,13.97
2023-01-23T13:23:26.506Z,16.17
2023-01-23T13:26:25.113Z,15.03
2023-01-23T13:28:55.047Z,11.67
2023-01-23T13:31:33.909Z,14.57
2023-01-23T13:34:15.020Z,16.83
2023-01-23T13:36:44.570Z,18.07
2023-01-23T13:39:28.457Z,17.77
2023-01-23T13:42:45.838Z,19.33
2023-01-23T13:45:29.555Z,19.17
2023-01-23T14:20:51.302Z,23.07
2023-01-23T14:23:27.343Z,22.20
2023-01-23T14:25:55.569Z,26.90
2023-01-23T14:28:23.569Z,25.07
2023-01-23T14:30:58.418Z,26.43
2023-01-23T14:33:27.366Z,22.87
2023-01-23T14:35:57.277Z,25.43
2023-01-23T14:38:35.320Z,23.80
2023-01-23T14:41:08.309Z,24.90
2023-01-23T14:43:38.441Z,21.37
2023-01-23T14:46:15.138Z,25.13
2023-01-23T14:48:45.801Z,26.47
2023-01-23T14:51:21.168Z,22.93
2023-01-23T14:53:56.546Z,21.70
2023-01-23T14:56:28.844Z,24.17
2023-01-23T14:58:59.594Z,25.20
2023-01-23T15:01:28.673Z,24.43
2023-01-23T15:04:02.296Z,28.70
2023-01-23T15:06:32.494Z,25.73
2023-01-23T15:09:20.820Z,24.47
2023-01-23T15:11:48.883Z,24.87
2023-01-23T15:14:26.932Z,23.77
2023-01-23T15:17:01.628Z,23.27
2023-01-23T15:19:30.513Z,23.03
2023-01-23T15:22:18.012Z,23.40
2023-01-23T15:24:47.706Z,25.30
2023-01-23T15:27:26.997Z,25.67
2023-01-23T15:30:28.183Z,21.90
2023-01-23T15:32:56.473Z,23.17
2023-01-23T15:35:26.020Z,27.10
2023-01-23T15:37:59.016Z,28.73
2023-01-23T15:40:30.112Z,24.70
2023-01-23T15:43:03.778Z,23.30
2023-01-23T15:45:31.617Z,20.80
2023-01-23T15:47:59.971Z,20.67
2023-01-23T15:50:28.802Z,22.37
2023-01-23T15:52:58.777Z,19.20
2023-01-23T15:55:29.657Z,16.63
2023-01-23T15:57:57.779Z,17.77
2023-01-23T16:00:28.133Z,18.70
2023-01-23T16:02:58.197Z,17.17
2023-01-23T16:05:28.238Z,17.30
2023-01-23T16:08:01.183Z,20.67
2023-01-23T16:10:34.772Z,15.20
2023-01-23T16:13:03.667Z,14.83
2023-01-23T16:15:33.212Z,12.17
2023-01-23T16:18:03.056Z,10.37
2023-01-23T16:20:34.585Z,10.80
2023-01-23T16:23:14.552Z,10.10
2023-01-23T16:25:46.345Z,13.80
2023-01-23T16:28:15.379Z,10.57
2023-01-23T16:30:43.582Z,9.77
2023-01-23T16:33:11.505Z,11.03
2023-01-23T16:35:39.723Z,12.23
2023-01-23T16:38:08.001Z,12.73
2023-01-23T16:40:36.180Z,12.27
2023-01-23T16:43:05.609Z,11.73
2023-01-23T16:45:33.857Z,11.97
2023-01-23T16:48:01.799Z,12.63
2023-01-23T16:50:34.162Z,14.43
2023-01-23T16:53:06.110Z,12.80
2023-01-23T16:55:36.238Z,12.50
2023-01-23T16:58:06.761Z,15.27
2023-01-23T17:00:36.457Z,13.23
2023-01-23T17:03:08.327Z,11.30
2023-01-23T17:05:38.184Z,8.83
2023-01-23T17:08:18.379Z,7.73
2023-01-23T17:10:48.424Z,10.27
2023-01-23T17:13:20.721Z,9.27
2023-01-23T17:15:49.944Z,10.80
2023-01-23T17:18:23.149Z,13.23
2023-01-23T17:20:51.272Z,13.20
2023-01-23T17:23:19.313Z,12.23
2023-01-23T17:25:59.860Z,11.60
2023-01-23T17:28:30.213Z,12.27
2023-01-23T17:31:01.622Z,11.77
2023-01-23T17:33:32.478Z,16.40
2023-01-23T17:36:03.661Z,18.10
2023-01-23T17:38:32.175Z,14.17
2023-01-23T17:41:00.085Z,12.67
2023-01-23T17:43:30.766Z,11.70
2023-01-23T17:45:59.042Z,12.77
2023-01-23T17:48:30.328Z,12.40
2023-01-23T17:50:58.749Z,12.00
2023-01-23T17:53:27.960Z,9.97
2023-01-23T17:55:55.950Z,10.47
2023-01-23T17:58:24.492Z,11.23
2023-01-23T18:00:56.009Z,10.87
2023-01-23T18:03:25.502Z,12.93
2023-01-23T18:05:53.801Z,11.77
2023-01-23T18:08:23.113Z,13.60
2023-01-23T18:10:54.037Z,9.53
2023-01-23T18:13:29.611Z,11.37
2023-01-23T18:16:10.212Z,9.90
2023-01-23T18:18:40.446Z,11.20
2023-01-23T18:21:17.858Z,10.13
2023-01-23T18:23:46.363Z,8.60
2023-01-23T18:26:29.893Z,10.77
2023-01-23T18:29:05.466Z,9.87
2023-01-23T18:31:41.375Z,9.13
2023-01-23T18:34:24.882Z,9.90
2023-01-23T18:37:03.762Z,9.73
2023-01-23T18:39:45.168Z,13.33
2023-01-23T18:42:21.971Z,9.40
2023-01-23T18:44:55.820Z,10.27
2023-01-23T18:47:25.978Z,9.17
2023-01-23T18:49:54.675Z,12.63
2023-01-23T18:52:30.520Z,10.00
2023-01-23T18:55:05.564Z,8.93
2023-01-23T18:57:50.275Z,9.17
2023-01-23T19:00:24.671Z,9.43
2023-01-23T19:02:59.241Z,9.13
2023-01-23T19:05:30.193Z,8.83
2023-01-23T19:08:00.001Z,9.23
2023-01-23T19:10:32.481Z,8.30
2023-01-23T19:13:16.204Z,11.63
2023-01-23T19:15:53.245Z,9.57
2023-01-23T19:18:40.796Z,9.17
2023-01-23T19:21:15.796Z,7.63
2023-01-23T19:23:50.287Z,8.80
2023-01-23T19:26:19.788Z,9.23
2023-01-23T19:28:48.299Z,8.43
2023-01-23T19:31:22.301Z,8.80
2023-01-23T19:33:52.310Z,9.57
2023-01-23T19:36:20.896Z,10.53
2023-01-23T19:38:49.377Z,11.47
2023-01-23T19:41:20.768Z,12.73
2023-01-23T19:43:50.795Z,9.73
2023-01-23T19:46:19.854Z,10.07
2023-01-23T19:48:48.213Z,8.77
2023-01-23T19:51:22.726Z,12.83
2023-01-23T19:53:51.025Z,9.77
2023-01-23T19:56:19.409Z,12.00
2023-01-23T19:58:48.254Z,9.80
2023-01-23T20:01:23.913Z,8.40
2023-01-23T20:03:52.209Z,10.17
2023-01-23T20:06:21.560Z,9.83
2023-01-23T20:08:49.653Z,8.90
2023-01-23T20:11:18.231Z,10.27
2023-01-23T20:13:46.211Z,9.67
2023-01-23T20:16:18.567Z,9.63
2023-01-23T20:18:48.158Z,11.73
2023-01-23T20:21:17.019Z,11.07
2023-01-23T20:23:47.024Z,8.07
2023-01-23T20:26:16.545Z,9.03
2023-01-23T20:28:49.727Z,8.43
2023-01-23T20:31:18.201Z,7.60
2023-01-23T20:33:46.264Z,8.10
2023-01-23T20:36:15.987Z,7.47
2023-01-23T20:38:46.792Z,6.67
2023-01-23T20:41:17.530Z,6.90
2023-01-23T20:43:46.411Z,7.87
2023-01-23T20:46:15.556Z,7.40
2023-01-23T20:48:45.812Z,7.17
2023-01-23T20:51:15.826Z,8.07
2023-01-23T20:53:43.149Z,8.57
2023-01-23T20:56:14.538Z,8.60
2023-01-23T20:59:02.198Z,7.70
2023-01-23T21:01:52.501Z,8.27
2023-01-23T21:04:21.259Z,9.37
2023-01-23T21:06:51.787Z,7.10
2023-01-23T21:09:20.239Z,7.50
2023-01-23T21:11:51.149Z,9.03
2023-01-23T21:14:19.503Z,8.57
2023-01-23T21:16:48.393Z,7.83
2023-01-23T21:19:16.864Z,8.77
2023-01-23T21:21:44.948Z,8.33
2023-01-23T21:24:13.048Z,7.07
2023-01-23T21:26:41.296Z,7.40
2023-01-23T21:29:11.639Z,7.57
2023-01-23T21:31:40.463Z,7.67
2023-01-23T21:34:10.508Z,7.07
2023-01-23T21:36:38.549Z,7.73
2023-01-23T21:39:09.415Z,6.93
2023-01-23T21:41:38.305Z,6.57
2023-01-23T21:44:06.515Z,6.37
2023-01-23T21:46:35.803Z,7.77
2023-01-23T21:49:05.021Z,7.70
2023-01-23T21:51:32.994Z,8.00
2023-01-23T21:54:01.946Z,7.37
2023-01-23T21:56:29.932Z,9.20
2023-01-23T21:58:58.859Z,9.83
2023-01-23T22:01:32.482Z,8.10
2023-01-23T22:04:03.250Z,7.47
2023-01-23T22:06:31.704Z,9.07
2023-01-23T22:09:00.212Z,7.20
2023-01-23T22:11:28.408Z,7.50
2023-01-23T22:13:56.514Z,7.13
2023-01-23T22:16:35.992Z,7.60
2023-01-23T22:19:15.343Z,7.47
2023-01-23T22:21:43.885Z,7.33
2023-01-23T22:24:11.985Z,8.23
2023-01-23T22:26:39.878Z,6.90
2023-01-23T22:29:08.702Z,7.27
2023-01-23T22:31:36.874Z,8.30
2023-01-23T22:34:05.091Z,8.67
2023-01-23T22:36:34.442Z,6.37
2023-01-23T22:39:02.369Z,9.57
2023-01-23T22:41:30.254Z,9.77
2023-01-23T22:43:59.389Z,7.70
2023-01-23T22:46:28.513Z,7.27
2023-01-23T22:48:56.559Z,7.50
2023-01-23T22:51:26.274Z,7.43
2023-01-23T22:53:56.854Z,6.40
2023-01-23T22:56:26.506Z,7.10
2023-01-23T22:58:56.054Z,6.23
2023-01-23T23:01:27.124Z,7.60
2023-01-23T23:03:57.128Z,7.53
2023-01-23T23:06:25.248Z,7.67
2023-01-23T23:08:54.039Z,7.13
2023-01-23T23:11:25.085Z,6.73
2023-01-23T23:13:53.197Z,7.83
2023-01-23T23:16:23.135Z,6.30
2023-01-23T23:18:53.274Z,7.17
2023-01-23T23:21:24.852Z,7.63
2023-01-23T23:23:56.650Z,7.73
2023-01-23T23:26:26.744Z,7.90
2023-01-23T23:28:55.026Z,9.87
2023-01-23T23:31:23.000Z,8.90
2023-01-23T23:33:51.200Z,7.97
2023-01-23T23:36:19.714Z,7.63
2023-01-23T23:38:47.586Z,7.80
2023-01-23T23:41:17.228Z,6.80
2023-01-23T23:43:46.517Z,8.10
2023-01-23T23:46:15.364Z,8.23
2023-01-23T23:48:46.138Z,6.77
2023-01-23T23:51:15.778Z,9.43
2023-01-23T23:53:43.706Z,8.83
2023-01-23T23:56:16.107Z,8.30
2023-01-23T23:58:43.980Z,7.40
